Time;durP1;ratioP1;P1;durP2;ratioP2;P2;SDS_P1;SDS_P2;PMS_P1;PMS_P2;Temp;Humidity;BMP_temperature;BMP_pressure;BME280_temperature;BME280_humidity;BME280_pressure;Samples;Min_cycle;Max_cycle;Signal;HPM_P1;HPM_P2
2022/07/04 00:00:01;;;;;;;;;;;;;;;;;;5068441;28;19908;-55
2022/07/04 00:02:27;;;;;;;;;;;;;;;;;;5068567;28;19900;-54
2022/07/04 00:04:53;;;;;;;;;;;;;;;;;;5082234;28;19912;-55
2022/07/04 00:07:19;;;;;;;;;;;;;;;;;;5088770;28;19908;-56
2022/07/04 00:09:45;;;;;;;;;;;;;;;;;;5088474;28;19926;-54
2022/07/04 00:12:11;;;;;;;;;;;;;;;;;;5070677;28;19912;-55
2022/07/04 00:14:37;;;;;;;;;;;;;;;;;;5068591;28;19904;-55
2022/07/04 00:17:03;;;;;;;;;;;;;;;;;;5068653;28;19904;-55
2022/07/04 00:19:29;;;;;;;;;;;;;;;;;;5068130;28;19904;-55
2022/07/04 00:21:55;;;;;;;;;;;;;;;;;;5066260;28;20355;-54
2022/07/04 00:24:21;;;;;;;;;;;;;;;;;;5068506;28;19908;-53
2022/07/04 00:26:47;;;;;;;;;;;;;;;;;;5068007;28;19912;-56
2022/07/04 00:29:13;;;;;;;;;;;;;;;;;;5068442;28;19936;-56
2022/07/04 00:31:39;;;;;;;;;;;;;;;;;;5068235;28;19909;-54
2022/07/04 00:34:06;;;;;;;;;;;;;;;;;;5068283;28;19908;-55
2022/07/04 00:36:32;;;;;;;;;;;;;;;;;;5067490;28;20374;-55
2022/07/04 00:38:58;;;;;;;;;;;;;;;;;;5067611;28;19947;-55
2022/07/04 00:41:24;;;;;;;;;;;;;;;;;;5068012;28;19908;-53
2022/07/04 00:43:50;;;;;;;;;;;;;;;;;;5067720;28;20000;-55
2022/07/04 00:46:16;;;;;;;;;;;;;;;;;;5068246;28;19908;-57
2022/07/04 00:48:42;;;;;;;;;;;;;;;;;;5065303;28;19916;-55
2022/07/04 00:51:08;;;;;;;;;;;;;;;;;;5067895;28;19957;-57
2022/07/04 00:53:34;;;;;;;;;;;;;;;;;;5067553;28;19905;-57
2022/07/04 00:56:00;;;;;;;;;;;;;;;;;;5069124;28;19912;-56
2022/07/04 00:58:26;;;;;;;;;;;;;;;;;;5071484;28;19955;-56
2022/07/04 01:00:52;;;;;;;;;;;;;;;;;;5071283;28;19916;-56
2022/07/04 01:03:18;;;;;;;;;;;;;;;;;;5068384;28;20522;-57
2022/07/04 01:05:44;;;;;;;;;;;;;;;;;;5051611;28;19920;-56
2022/07/04 01:08:10;;;;;;;;;;;;;;;;;;5052148;28;20007;-54
2022/07/04 01:10:35;;;;;;;;;;;;;;;;;;5052057;28;20003;-56
2022/07/04 01:13:01;;;;;;;;;;;;;;;;;;5051597;28;19931;-56
2022/07/04 01:15:27;;;;;;;;;;;;;;;;;;5051594;28;20000;-56
2022/07/04 01:17:53;;;;;;;;;;;;;;;;;;5051034;28;19905;-56
2022/07/04 01:20:19;;;;;;;;;;;;;;;;;;5071683;28;20009;-55
2022/07/04 01:22:45;;;;;;;;;;;;;;;;;;5070161;28;20139;-57
2022/07/04 01:25:13;;;;;;;;;;;;;;;;;;5071744;28;19911;-57
2022/07/04 01:27:39;;;;;;;;;;;;;;;;;;5071648;28;19915;-56
2022/07/04 01:30:05;;;;;;;;;;;;;;;;;;5071827;28;20079;-56
2022/07/04 01:32:31;;;;;;;;;;;;;;;;;;5071412;28;19942;-57
2022/07/04 01:34:57;;;;;;;;;;;;;;;;;;5071074;28;19930;-56
2022/07/04 01:37:23;;;;;;;;;;;;;;;;;;5061290;28;19909;-56
2022/07/04 01:39:49;;;;;;;;;;;;;;;;;;5051364;28;19915;-55
2022/07/04 01:42:15;;;;;;;;;;;;;;;;;;5057985;28;19908;-56
2022/07/04 01:44:41;;;;;;;;;;;;;;;;;;5071129;28;19958;-55
2022/07/04 01:47:07;;;;;;;;;;;;;;;;;;5070038;28;20511;-57
2022/07/04 01:49:33;;;;;;;;;;;;;;;;;;5070983;28;20379;-57
2022/07/04 01:51:59;;;;;;;;;;;;;;;;;;5070947;28;19904;-54
2022/07/04 01:54:26;;;;;;;;;;;;;;;;;;5069440;28;19912;-55
2022/07/04 01:56:52;;;;;;;;;;;;;;;;;;5062403;28;19988;-54
2022/07/04 01:59:18;;;;;;;;;;;;;;;;;;5051207;28;19944;-55
2022/07/04 02:01:44;;;;;;;;;;;;;;;;;;5050552;28;19923;-55
2022/07/04 02:04:09;;;;;;;;;;;;;;;;;;5051013;28;19999;-54
2022/07/04 02:06:35;;;;;;;;;;;;;;;;;;5050544;28;19915;-55
2022/07/04 02:09:17;;;;;;;;;;;;;;;;;;5050374;28;19958;-54
2022/07/04 02:14:27;;;;;;;;;;;;;;;;;;5070731;28;19962;-55
2022/07/04 02:16:53;;;;;;;;;;;;;;;;;;5070447;28;20427;-56
2022/07/04 02:19:19;;;;;;;;;;;;;;;;;;5070669;28;19904;-55
2022/07/04 02:21:45;;;;;;;;;;;;;;;;;;5070379;28;19904;-55
2022/07/04 02:24:11;;;;;;;;;;;;;;;;;;5065133;28;20387;-54
2022/07/04 02:26:37;;;;;;;;;;;;;;;;;;5049098;28;19908;-55
2022/07/04 02:29:03;;;;;;;;;;;;;;;;;;5049129;28;19909;-55
2022/07/04 02:31:30;;;;;;;;;;;;;;;;;;5048739;28;19905;-55
2022/07/04 02:33:56;;;;;;;;;;;;;;;;;;5048447;28;20340;-56
2022/07/04 02:36:23;;;;;;;;;;;;;;;;;;5048859;28;19908;-54
2022/07/04 02:38:49;;;;;;;;;;;;;;;;;;5048537;28;20296;-56
2022/07/04 02:41:14;;;;;;;;;;;;;;;;;;5048769;28;19911;-56
2022/07/04 02:43:41;;;;;;;;;;;;;;;;;;5048519;28;19912;-55
2022/07/04 02:46:07;;;;;;;;;;;;;;;;;;5048880;28;19909;-55
2022/07/04 02:48:33;;;;;;;;;;;;;;;;;;5046592;28;19913;-56
2022/07/04 02:50:59;;;;;;;;;;;;;;;;;;5048219;28;19947;-57
2022/07/04 02:53:25;;;;;;;;;;;;;;;;;;5048135;28;19936;-56
2022/07/04 02:55:51;;;;;;;;;;;;;;;;;;5066096;28;19915;-54
2022/07/04 02:58:17;;;;;;;;;;;;;;;;;;5068324;28;19918;-57
2022/07/04 03:00:43;;;;;;;;;;;;;;;;;;5067962;28;19909;-54
2022/07/04 03:03:08;;;;;;;;;;;;;;;;;;5068275;28;19905;-57
2022/07/04 03:05:34;;;;;;;;;;;;;;;;;;5068031;28;20386;-56
2022/07/04 03:08:01;;;;;;;;;;;;;;;;;;5067863;28;19919;-55
2022/07/04 03:10:28;;;;;;;;;;;;;;;;;;5056605;28;20326;-55
2022/07/04 03:12:54;;;;;;;;;;;;;;;;;;5047673;28;19958;-54
2022/07/04 03:15:20;;;;;;;;;;;;;;;;;;5048413;28;19904;-55
2022/07/04 03:17:47;;;;;;;;;;;;;;;;;;5047701;28;19909;-55
2022/07/04 03:20:13;;;;;;;;;;;;;;;;;;5048058;28;19908;-54
2022/07/04 03:22:39;;;;;;;;;;;;;;;;;;5047926;28;19904;-55
2022/07/04 03:25:05;;;;;;;;;;;;;;;;;;5054750;28;19912;-52
2022/07/04 03:27:32;;;;;;;;;;;;;;;;;;5067766;28;19913;-54
2022/07/04 03:29:59;;;;;;;;;;;;;;;;;;5067583;28;19915;-54
2022/07/04 03:32:25;;;;;;;;;;;;;;;;;;5067387;28;20494;-56
2022/07/04 03:34:52;;;;;;;;;;;;;;;;;;5067874;28;19904;-54
2022/07/04 03:37:19;;;;;;;;;;;;;;;;;;5067593;28;20341;-54
2022/07/04 03:39:46;;;;;;;;;;;;;;;;;;5057522;28;19970;-53
2022/07/04 03:42:12;;;;;;;;;;;;;;;;;;5047041;28;20003;-54
2022/07/04 03:44:37;;;;;;;;;;;;;;;;;;5047792;28;20382;-54
2022/07/04 03:47:03;;;;;;;;;;;;;;;;;;5047214;28;20295;-54
2022/07/04 03:49:29;;;;;;;;;;;;;;;;;;5046022;28;19936;-54
2022/07/04 03:51:55;;;;;;;;;;;;;;;;;;5047200;28;19908;-54
2022/07/04 03:54:22;;;;;;;;;;;;;;;;;;5047512;28;20011;-54
2022/07/04 03:56:48;;;;;;;;;;;;;;;;;;5062314;28;19978;-53
2022/07/04 03:59:14;;;;;;;;;;;;;;;;;;5067397;28;20379;-53
2022/07/04 04:01:41;;;;;;;;;;;;;;;;;;5066452;28;19952;-54
2022/07/04 04:06:52;;;;;;;;;;;;;;;;;;5066971;28;20007;-54
2022/07/04 04:09:19;;;;;;;;;;;;;;;;;;5067194;28;20373;-53
2022/07/04 04:11:45;;;;;;;;;;;;;;;;;;5066417;28;19905;-54
2022/07/04 04:14:12;;;;;;;;;;;;;;;;;;5067024;28;20107;-54
2022/07/04 04:16:38;;;;;;;;;;;;;;;;;;5065813;28;19965;-54
2022/07/04 04:19:05;;;;;;;;;;;;;;;;;;5067043;28;20383;-54
2022/07/04 04:21:30;;;;;;;;;;;;;;;;;;5066850;28;19904;-55
2022/07/04 04:23:56;;;;;;;;;;;;;;;;;;5066650;28;20381;-54
2022/07/04 04:26:23;;;;;;;;;;;;;;;;;;5064956;28;19909;-54
2022/07/04 04:28:49;;;;;;;;;;;;;;;;;;5066297;28;19908;-54
2022/07/04 04:31:17;;;;;;;;;;;;;;;;;;5066132;28;19904;-54
2022/07/04 04:33:42;;;;;;;;;;;;;;;;;;5066701;28;20786;-54
2022/07/04 04:36:09;;;;;;;;;;;;;;;;;;5066342;28;20019;-52
2022/07/04 04:38:35;;;;;;;;;;;;;;;;;;5066967;28;20357;-54
2022/07/04 04:41:01;;;;;;;;;;;;;;;;;;5060818;28;19909;-54
2022/07/04 04:43:27;;;;;;;;;;;;;;;;;;5046720;28;19912;-53
2022/07/04 04:45:53;;;;;;;;;;;;;;;;;;5046231;28;20191;-54
2022/07/04 04:48:19;;;;;;;;;;;;;;;;;;5046443;28;19920;-53
2022/07/04 04:50:45;;;;;;;;;;;;;;;;;;5046318;28;19905;-54
2022/07/04 04:53:11;;;;;;;;;;;;;;;;;;5046726;28;19905;-54
2022/07/04 04:55:37;;;;;;;;;;;;;;;;;;5060177;28;19915;-55
2022/07/04 04:58:03;;;;;;;;;;;;;;;;;;5066420;28;20163;-52
2022/07/04 05:00:29;;;;;;;;;;;;;;;;;;5066665;28;19971;-53
2022/07/04 05:02:55;;;;;;;;;;;;;;;;;;5066204;28;19910;-55
2022/07/04 05:05:21;;;;;;;;;;;;;;;;;;5066417;28;19912;-53
2022/07/04 05:07:47;;;;;;;;;;;;;;;;;;5066370;28;19915;-54
2022/07/04 05:10:13;;;;;;;;;;;;;;;;;;5064930;28;19908;-54
2022/07/04 05:12:38;;;;;;;;;;;;;;;;;;5065126;28;19909;-54
2022/07/04 05:15:04;;;;;;;;;;;;;;;;;;5066057;28;19904;-54
2022/07/04 05:17:30;;;;;;;;;;;;;;;;;;5066340;28;19916;-54
2022/07/04 05:19:57;;;;;;;;;;;;;;;;;;5066277;28;20291;-54
2022/07/04 05:22:23;;;;;;;;;;;;;;;;;;5066377;28;19916;-54
2022/07/04 05:24:50;;;;;;;;;;;;;;;;;;5064500;28;19920;-55
2022/07/04 05:27:17;;;;;;;;;;;;;;;;;;5064670;28;19912;-54
2022/07/04 05:29:43;;;;;;;;;;;;;;;;;;5064884;28;20393;-54
2022/07/04 05:32:09;;;;;;;;;;;;;;;;;;5066479;28;19908;-55
2022/07/04 05:34:35;;;;;;;;;;;;;;;;;;5064813;28;19955;-54
2022/07/04 05:37:02;;;;;;;;;;;;;;;;;;5065924;28;19904;-55
2022/07/04 05:39:28;;;;;;;;;;;;;;;;;;5059775;28;19916;-55
2022/07/04 05:41:54;;;;;;;;;;;;;;;;;;5045773;28;19909;-54
2022/07/04 05:44:20;;;;;;;;;;;;;;;;;;5049863;28;20244;-54
2022/07/04 05:46:46;;;;;;;;;;;;;;;;;;5049289;28;19958;-54
2022/07/04 05:49:12;;;;;;;;;;;;;;;;;;5049402;28;19912;-55
2022/07/04 05:51:37;;;;;;;;;;;;;;;;;;5068154;28;20355;-54
2022/07/04 05:54:03;;;;;;;;;;;;;;;;;;5064100;28;19961;-55
2022/07/04 05:56:30;;;;;;;;;;;;;;;;;;5059198;28;19908;-56
2022/07/04 05:58:56;;;;;;;;;;;;;;;;;;5069782;28;19909;-54
2022/07/04 06:01:22;;;;;;;;;;;;;;;;;;5064780;28;19908;-54
2022/07/04 06:03:48;;;;;;;;;;;;;;;;;;5070641;28;20271;-53
2022/07/04 06:06:15;;;;;;;;;;;;;;;;;;5059847;28;19923;-54
2022/07/04 06:08:41;;;;;;;;;;;;;;;;;;5070336;28;19915;-54
2022/07/04 06:11:07;;;;;;;;;;;;;;;;;;5070891;28;20318;-55
2022/07/04 06:13:33;;;;;;;;;;;;;;;;;;5065230;28;19909;-54
2022/07/04 06:15:59;;;;;;;;;;;;;;;;;;5061436;28;19912;-54
2022/07/04 06:18:25;;;;;;;;;;;;;;;;;;5055659;28;19918;-54
2022/07/04 06:20:51;;;;;;;;;;;;;;;;;;5064163;28;19913;-55
2022/07/04 06:23:17;;;;;;;;;;;;;;;;;;5059955;28;19908;-55
2022/07/04 06:25:43;;;;;;;;;;;;;;;;;;5070318;28;19927;-56
2022/07/04 06:28:09;;;;;;;;;;;;;;;;;;5054243;28;19913;-54
2022/07/04 06:30:34;;;;;;;;;;;;;;;;;;5050160;28;19910;-54
2022/07/04 06:33:00;;;;;;;;;;;;;;;;;;5051174;28;19966;-54
2022/07/04 06:35:45;;;;;;;;;;;;;;;;;;5055101;28;19919;-54
2022/07/04 06:38:11;;;;;;;;;;;;;;;;;;5060397;28;19963;-56
2022/07/04 06:40:36;;;;;;;;;;;;;;;;;;5050492;28;20363;-55
2022/07/04 06:43:03;;;;;;;;;;;;;;;;;;5050025;28;19911;-55
2022/07/04 06:45:29;;;;;;;;;;;;;;;;;;5049995;28;19916;-53
2022/07/04 06:47:55;;;;;;;;;;;;;;;;;;5049251;28;19912;-56
2022/07/04 06:50:22;;;;;;;;;;;;;;;;;;5064076;28;19923;-55
2022/07/04 06:52:48;;;;;;;;;;;;;;;;;;5068672;28;19904;-54
2022/07/04 06:55:14;;;;;;;;;;;;;;;;;;5068831;28;20314;-55
2022/07/04 06:57:40;;;;;;;;;;;;;;;;;;5067004;28;19924;-54
2022/07/04 07:00:06;;;;;;;;;;;;;;;;;;5062487;28;20419;-56
2022/07/04 07:02:32;;;;;;;;;;;;;;;;;;5062096;28;19983;-56
2022/07/04 07:04:58;;;;;;;;;;;;;;;;;;5062296;28;19916;-56
2022/07/04 07:07:25;;;;;;;;;;;;;;;;;;5054664;28;20051;-52
2022/07/04 07:09:51;;;;;;;;;;;;;;;;;;5058298;28;19904;-54
2022/07/04 07:12:17;;;;;;;;;;;;;;;;;;5055343;28;19978;-54
2022/07/04 07:14:44;;;;;;;;;;;;;;;;;;5055420;28;19908;-56
2022/07/04 07:17:10;;;;;;;;;;;;;;;;;;5075557;28;19966;-57
2022/07/04 07:19:36;;;;;;;;;;;;;;;;;;5088164;28;19965;-56
2022/07/04 07:22:03;;;;;;;;;;;;;;;;;;5089152;28;19956;-55
2022/07/04 07:24:31;;;;;;;;;;;;;;;;;;5089274;28;20290;-58
2022/07/04 07:26:58;;;;;;;;;;;;;;;;;;5088932;28;20005;-55
2022/07/04 07:29:24;;;;;;;;;;;;;;;;;;5056731;28;20448;-54
2022/07/04 07:31:51;;;;;;;;;;;;;;;;;;5056348;28;19995;-54
2022/07/04 07:34:17;;;;;;;;;;;;;;;;;;5068214;28;20007;-57
2022/07/04 07:36:44;;;;;;;;;;;;;;;;;;5068592;28;19983;-56
2022/07/04 07:39:11;;;;;;;;;;;;;;;;;;5067480;28;20008;-54
2022/07/04 07:41:37;;;;;;;;;;;;;;;;;;5052300;28;20010;-55
2022/07/04 07:44:03;;;;;;;;;;;;;;;;;;5058011;28;20040;-54
2022/07/04 07:46:29;;;;;;;;;;;;;;;;;;5048842;28;19908;-56
2022/07/04 07:48:56;;;;;;;;;;;;;;;;;;5046566;28;19929;-53
2022/07/04 07:51:22;;;;;;;;;;;;;;;;;;5048717;28;19912;-54
2022/07/04 07:53:48;;;;;;;;;;;;;;;;;;5048337;28;20319;-55
2022/07/04 07:56:14;;;;;;;;;;;;;;;;;;5048527;28;19916;-53
2022/07/04 07:58:40;;;;;;;;;;;;;;;;;;5048355;28;20380;-51
2022/07/04 08:01:07;;;;;;;;;;;;;;;;;;5048564;28;19908;-54
2022/07/04 08:06:18;;;;;;;;;;;;;;;;;;5054424;28;20014;-54
2022/07/04 08:08:44;;;;;;;;;;;;;;;;;;5047108;28;19917;-54
2022/07/04 08:11:10;;;;;;;;;;;;;;;;;;5088528;28;20369;-55
2022/07/04 08:13:37;;;;;;;;;;;;;;;;;;5073146;28;19966;-53
2022/07/04 08:16:03;;;;;;;;;;;;;;;;;;5068313;28;19908;-52
2022/07/04 08:18:29;;;;;;;;;;;;;;;;;;5080361;28;19961;-55
2022/07/04 08:20:55;;;;;;;;;;;;;;;;;;5068122;28;20336;-55
2022/07/04 08:23:20;;;;;;;;;;;;;;;;;;5072702;28;19971;-54
2022/07/04 08:25:46;;;;;;;;;;;;;;;;;;5067424;28;20007;-55
2022/07/04 08:28:12;;;;;;;;;;;;;;;;;;5068218;28;19909;-53
2022/07/04 08:30:38;;;;;;;;;;;;;;;;;;5067912;28;19939;-54
2022/07/04 08:33:05;;;;;;;;;;;;;;;;;;5050769;28;19913;-54
2022/07/04 08:35:33;;;;;;;;;;;;;;;;;;5054782;28;19990;-53
2022/07/04 08:37:59;;;;;;;;;;;;;;;;;;5053062;28;19908;-54
2022/07/04 08:40:25;;;;;;;;;;;;;;;;;;5055301;28;19912;-53
2022/07/04 08:42:51;;;;;;;;;;;;;;;;;;5070894;28;19908;-54
2022/07/04 08:45:17;;;;;;;;;;;;;;;;;;5059534;28;19931;-53
2022/07/04 08:47:43;;;;;;;;;;;;;;;;;;5051903;28;19922;-53
2022/07/04 08:50:10;;;;;;;;;;;;;;;;;;5056810;28;19921;-54
2022/07/04 08:52:39;;;;;;;;;;;;;;;;;;5066595;28;19917;-54
2022/07/04 09:00:35;;;;;;;;;;;;;;;;;;5062694;28;19915;-50
2022/07/04 09:03:01;;;;;;;;;;;;;;;;;;5063998;28;19916;-51
2022/07/04 09:05:27;;;;;;;;;;;;;;;;;;5053298;28;19913;-51
2022/07/04 09:07:54;;;;;;;;;;;;;;;;;;5055806;28;20375;-51
2022/07/04 09:10:20;;;;;;;;;;;;;;;;;;5049916;28;19909;-48
2022/07/04 09:12:46;;;;;;;;;;;;;;;;;;5056085;28;19966;-48
2022/07/04 09:15:12;;;;;;;;;;;;;;;;;;5058227;28;19908;-48
2022/07/04 09:17:38;;;;;;;;;;;;;;;;;;5057917;28;19909;-50
2022/07/04 09:20:04;;;;;;;;;;;;;;;;;;5060920;28;20033;-50
2022/07/04 09:22:29;;;;;;;;;;;;;;;;;;5056684;28;19919;-49
2022/07/04 09:24:55;;;;;;;;;;;;;;;;;;5056663;28;19924;-52
2022/07/04 09:27:21;;;;;;;;;;;;;;;;;;5064831;28;19964;-51
2022/07/04 09:29:47;;;;;;;;;;;;;;;;;;5062487;28;19909;-48
2022/07/04 09:32:13;;;;;;;;;;;;;;;;;;5053671;28;19916;-49
2022/07/04 09:34:39;;;;;;;;;;;;;;;;;;5060843;28;20018;-48
2022/07/04 09:37:05;;;;;;;;;;;;;;;;;;5056717;28;19951;-52
2022/07/04 09:39:31;;;;;;;;;;;;;;;;;;5066093;28;19953;-49
2022/07/04 09:41:57;;;;;;;;;;;;;;;;;;5061141;28;20009;-49
2022/07/04 09:44:23;;;;;;;;;;;;;;;;;;5064648;28;19904;-48
2022/07/04 09:46:49;;;;;;;;;;;;;;;;;;5071503;28;19911;-48
2022/07/04 09:49:15;;;;;;;;;;;;;;;;;;5052212;28;19912;-49
2022/07/04 09:51:42;;;;;;;;;;;;;;;;;;5056135;28;19913;-50
2022/07/04 09:54:08;;;;;;;;;;;;;;;;;;5053496;28;20291;-53
2022/07/04 09:56:34;;;;;;;;;;;;;;;;;;5053401;28;19915;-50
2022/07/04 09:59:00;;;;;;;;;;;;;;;;;;5052416;28;19913;-50
2022/07/04 10:01:26;;;;;;;;;;;;;;;;;;5051396;28;19913;-52
2022/07/04 10:03:52;;;;;;;;;;;;;;;;;;5051007;28;19963;-50
2022/07/04 10:06:18;;;;;;;;;;;;;;;;;;5053087;28;19970;-49
2022/07/04 10:08:44;;;;;;;;;;;;;;;;;;5062169;28;20372;-51
2022/07/04 10:11:10;;;;;;;;;;;;;;;;;;5069547;28;19908;-53
2022/07/04 10:13:36;;;;;;;;;;;;;;;;;;5050312;28;19970;-49
2022/07/04 10:16:02;;;;;;;;;;;;;;;;;;5063127;28;20387;-50
2022/07/04 10:18:27;;;;;;;;;;;;;;;;;;5068380;28;19908;-51
2022/07/04 10:20:53;;;;;;;;;;;;;;;;;;5051396;28;20031;-50
2022/07/04 10:23:19;;;;;;;;;;;;;;;;;;5060832;28;20422;-48
2022/07/04 10:25:45;;;;;;;;;;;;;;;;;;5055739;28;19909;-48
2022/07/04 10:28:11;;;;;;;;;;;;;;;;;;5050072;28;19977;-52
2022/07/04 10:30:37;;;;;;;;;;;;;;;;;;5062469;28;19904;-52
2022/07/04 10:33:03;;;;;;;;;;;;;;;;;;5069208;28;19908;-52
2022/07/04 10:35:29;;;;;;;;;;;;;;;;;;5071150;28;19912;-52
2022/07/04 10:37:55;;;;;;;;;;;;;;;;;;5052944;28;19912;-52
2022/07/04 10:40:21;;;;;;;;;;;;;;;;;;5062980;28;19909;-51
2022/07/04 10:42:47;;;;;;;;;;;;;;;;;;5051638;28;19916;-50
2022/07/04 10:45:15;;;;;;;;;;;;;;;;;;5051286;28;20004;-51
2022/07/04 10:47:41;;;;;;;;;;;;;;;;;;5050523;28;19913;-52
2022/07/04 10:50:07;;;;;;;;;;;;;;;;;;5056397;28;20037;-49
2022/07/04 10:52:33;;;;;;;;;;;;;;;;;;5060657;28;19952;-51
2022/07/04 10:55:00;;;;;;;;;;;;;;;;;;5050503;28;19916;-50
2022/07/04 10:57:26;;;;;;;;;;;;;;;;;;5050509;28;20046;-51
2022/07/04 10:59:52;;;;;;;;;;;;;;;;;;5051665;28;20416;-49
2022/07/04 11:02:18;;;;;;;;;;;;;;;;;;5055271;28;19927;-50
2022/07/04 11:04:44;;;;;;;;;;;;;;;;;;5060387;28;19919;-51
2022/07/04 11:07:10;;;;;;;;;;;;;;;;;;5067251;28;19908;-52
2022/07/04 11:09:36;;;;;;;;;;;;;;;;;;5054570;28;19916;-53
2022/07/04 11:12:03;;;;;;;;;;;;;;;;;;5061877;28;19913;-53
2022/07/04 11:14:29;;;;;;;;;;;;;;;;;;5063489;28;19908;-48
2022/07/04 11:16:55;;;;;;;;;;;;;;;;;;5060934;28;19923;-49
2022/07/04 11:19:21;;;;;;;;;;;;;;;;;;5064231;28;19920;-51
2022/07/04 11:21:47;;;;;;;;;;;;;;;;;;5053131;28;20016;-49
2022/07/04 11:24:13;;;;;;;;;;;;;;;;;;5061603;28;19954;-52
2022/07/04 11:26:39;;;;;;;;;;;;;;;;;;5061660;28;20386;-52
2022/07/04 11:29:05;;;;;;;;;;;;;;;;;;5058907;28;19912;-52
2022/07/04 11:31:31;;;;;;;;;;;;;;;;;;5069822;28;19943;-48
2022/07/04 11:33:57;;;;;;;;;;;;;;;;;;5053971;28;19909;-51
2022/07/04 11:36:23;;;;;;;;;;;;;;;;;;5051058;28;19999;-53
2022/07/04 11:38:49;;;;;;;;;;;;;;;;;;5049747;28;20011;-50
2022/07/04 11:46:44;;;;;;;;;;;;;;;;;;5063499;28;19914;-48
2022/07/04 11:49:10;;;;;;;;;;;;;;;;;;5069964;28;19991;-53
2022/07/04 11:51:36;;;;;;;;;;;;;;;;;;5069501;28;19912;-50
2022/07/04 11:54:02;;;;;;;;;;;;;;;;;;5069716;28;19915;-52
2022/07/04 11:56:28;;;;;;;;;;;;;;;;;;5069260;28;19936;-51
2022/07/04 11:58:54;;;;;;;;;;;;;;;;;;5055025;28;19913;-50
2022/07/04 12:01:21;;;;;;;;;;;;;;;;;;5049230;28;19939;-49
2022/07/04 12:03:47;;;;;;;;;;;;;;;;;;5064711;28;19928;-52
2022/07/04 12:06:12;;;;;;;;;;;;;;;;;;5065449;28;19916;-53
2022/07/04 12:08:40;;;;;;;;;;;;;;;;;;5073143;28;20452;-51
2022/07/04 12:11:06;;;;;;;;;;;;;;;;;;5073671;28;20375;-52
2022/07/04 12:13:32;;;;;;;;;;;;;;;;;;5069563;28;20011;-53
2022/07/04 12:15:58;;;;;;;;;;;;;;;;;;5088324;28;19968;-52
2022/07/04 12:18:24;;;;;;;;;;;;;;;;;;5088721;28;19955;-52
2022/07/04 12:20:50;;;;;;;;;;;;;;;;;;5087421;28;19908;-52
2022/07/04 12:23:16;;;;;;;;;;;;;;;;;;5068242;28;20410;-52
2022/07/04 12:25:43;;;;;;;;;;;;;;;;;;5067809;28;19946;-53
2022/07/04 12:28:09;;;;;;;;;;;;;;;;;;5068330;28;19922;-51
2022/07/04 12:30:35;;;;;;;;;;;;;;;;;;5067886;28;20442;-52
2022/07/04 12:33:02;;;;;;;;;;;;;;;;;;5067890;28;19912;-53
2022/07/04 12:35:29;;;;;;;;;;;;;;;;;;5068273;28;19948;-51
2022/07/04 12:37:55;;;;;;;;;;;;;;;;;;5067907;28;19912;-50
2022/07/04 12:40:21;;;;;;;;;;;;;;;;;;5068301;28;19912;-52
2022/07/04 12:42:47;;;;;;;;;;;;;;;;;;5067626;28;19909;-49
2022/07/04 12:45:13;;;;;;;;;;;;;;;;;;5068002;28;19913;-52
2022/07/04 12:47:39;;;;;;;;;;;;;;;;;;5067565;28;19948;-50
2022/07/04 12:50:05;;;;;;;;;;;;;;;;;;5068099;28;19960;-50
2022/07/04 12:52:32;;;;;;;;;;;;;;;;;;5070949;28;19915;-50
2022/07/04 12:54:58;;;;;;;;;;;;;;;;;;5071901;28;19991;-51
2022/07/04 12:57:24;;;;;;;;;;;;;;;;;;5084134;28;20023;-51
2022/07/04 12:59:50;;;;;;;;;;;;;;;;;;5071269;28;19920;-47
2022/07/04 13:02:16;;;;;;;;;;;;;;;;;;5082233;28;20310;-48
2022/07/04 13:04:42;;;;;;;;;;;;;;;;;;5091791;28;19920;-48
2022/07/04 13:07:08;;;;;;;;;;;;;;;;;;5090386;28;19920;-51
2022/07/04 13:09:34;;;;;;;;;;;;;;;;;;5092069;28;20294;-49
2022/07/04 13:14:45;;;;;;;;;;;;;;;;;;5070498;28;19946;-50
2022/07/04 13:17:10;;;;;;;;;;;;;;;;;;5064612;28;19913;-49
2022/07/04 13:19:36;;;;;;;;;;;;;;;;;;5050084;28;19909;-52
2022/07/04 13:22:02;;;;;;;;;;;;;;;;;;5050043;28;19959;-49
2022/07/04 13:24:28;;;;;;;;;;;;;;;;;;5050242;28;19917;-48
2022/07/04 13:26:54;;;;;;;;;;;;;;;;;;5049810;28;19916;-47
2022/07/04 13:29:22;;;;;;;;;;;;;;;;;;5050316;28;19943;-49
2022/07/04 13:31:48;;;;;;;;;;;;;;;;;;5062949;28;20013;-50
2022/07/04 13:34:14;;;;;;;;;;;;;;;;;;5056019;28;19967;-49
2022/07/04 13:36:39;;;;;;;;;;;;;;;;;;5058144;28;19989;-49
2022/07/04 13:39:06;;;;;;;;;;;;;;;;;;5066057;28;19916;-51
2022/07/04 13:41:32;;;;;;;;;;;;;;;;;;5052384;28;19916;-49
2022/07/04 13:43:58;;;;;;;;;;;;;;;;;;5049710;28;20312;-51
2022/07/04 13:46:24;;;;;;;;;;;;;;;;;;5054341;28;19917;-51
2022/07/04 13:48:51;;;;;;;;;;;;;;;;;;5049215;28;19923;-49
2022/07/04 13:51:16;;;;;;;;;;;;;;;;;;5049488;28;20388;-49
2022/07/04 13:53:42;;;;;;;;;;;;;;;;;;5062114;28;19924;-48
2022/07/04 13:56:09;;;;;;;;;;;;;;;;;;5069622;28;19920;-48
2022/07/04 13:58:35;;;;;;;;;;;;;;;;;;5063667;28;20311;-50
2022/07/04 14:01:01;;;;;;;;;;;;;;;;;;5049153;28;19909;-51
2022/07/04 14:03:27;;;;;;;;;;;;;;;;;;5048417;28;20288;-48
2022/07/04 14:05:53;;;;;;;;;;;;;;;;;;5048959;28;19947;-50
2022/07/04 14:08:19;;;;;;;;;;;;;;;;;;5052481;28;19916;-48
2022/07/04 14:10:46;;;;;;;;;;;;;;;;;;5054479;28;20011;-49
2022/07/04 14:13:12;;;;;;;;;;;;;;;;;;5049234;28;19909;-51
2022/07/04 14:15:38;;;;;;;;;;;;;;;;;;5049051;28;19912;-52
2022/07/04 14:18:07;;;;;;;;;;;;;;;;;;5049272;28;20300;-49
2022/07/04 14:20:33;;;;;;;;;;;;;;;;;;5048792;28;19917;-50
2022/07/04 14:22:59;;;;;;;;;;;;;;;;;;5056599;28;20371;-48
2022/07/04 14:25:25;;;;;;;;;;;;;;;;;;5070916;28;19908;-51
2022/07/04 14:27:51;;;;;;;;;;;;;;;;;;5070148;28;19919;-51
2022/07/04 14:30:17;;;;;;;;;;;;;;;;;;5069140;28;19923;-50
2022/07/04 14:32:43;;;;;;;;;;;;;;;;;;5064835;28;20254;-51
2022/07/04 14:35:09;;;;;;;;;;;;;;;;;;5053256;28;19958;-50
2022/07/04 14:37:35;;;;;;;;;;;;;;;;;;5070254;28;19935;-48
2022/07/04 14:40:01;;;;;;;;;;;;;;;;;;5069959;28;19904;-49
2022/07/04 14:42:27;;;;;;;;;;;;;;;;;;5070036;28;19916;-51
2022/07/04 14:44:53;;;;;;;;;;;;;;;;;;5057955;28;19958;-49
2022/07/04 14:47:18;;;;;;;;;;;;;;;;;;5049569;28;20015;-49
2022/07/04 14:49:45;;;;;;;;;;;;;;;;;;5051598;28;19931;-49
2022/07/04 14:52:11;;;;;;;;;;;;;;;;;;5058692;28;19913;-48
2022/07/04 14:54:37;;;;;;;;;;;;;;;;;;5048842;28;20118;-49
2022/07/04 14:57:03;;;;;;;;;;;;;;;;;;5056295;28;20288;-49
2022/07/04 14:59:29;;;;;;;;;;;;;;;;;;5064152;28;19916;-48
2022/07/04 15:01:54;;;;;;;;;;;;;;;;;;5059793;28;19912;-48
2022/07/04 15:04:20;;;;;;;;;;;;;;;;;;5066864;28;19912;-48
2022/07/04 15:06:47;;;;;;;;;;;;;;;;;;5068024;28;20001;-49
2022/07/04 15:09:14;;;;;;;;;;;;;;;;;;5067922;28;20435;-51
2022/07/04 15:11:41;;;;;;;;;;;;;;;;;;5068250;28;20257;-49
2022/07/04 15:14:08;;;;;;;;;;;;;;;;;;5068093;28;19970;-48
2022/07/04 15:16:35;;;;;;;;;;;;;;;;;;5066972;28;19930;-49
2022/07/04 15:19:01;;;;;;;;;;;;;;;;;;5067358;28;19913;-50
2022/07/04 15:24:14;;;;;;;;;;;;;;;;;;5064082;28;19920;-49
2022/07/04 15:26:40;;;;;;;;;;;;;;;;;;5052081;28;19992;-51
2022/07/04 15:29:05;;;;;;;;;;;;;;;;;;5069350;28;20010;-50
2022/07/04 15:31:31;;;;;;;;;;;;;;;;;;5062077;28;19913;-50
2022/07/04 15:33:57;;;;;;;;;;;;;;;;;;5062117;28;19924;-50
2022/07/04 15:36:23;;;;;;;;;;;;;;;;;;5068350;28;19916;-51
2022/07/04 15:38:49;;;;;;;;;;;;;;;;;;5050355;28;19970;-51
2022/07/04 15:41:16;;;;;;;;;;;;;;;;;;5057754;28;19917;-52
2022/07/04 15:43:42;;;;;;;;;;;;;;;;;;5064906;28;19916;-50
2022/07/04 15:46:08;;;;;;;;;;;;;;;;;;5055625;28;19917;-51
2022/07/04 15:48:34;;;;;;;;;;;;;;;;;;5048671;28;19917;-50
2022/07/04 15:51:00;;;;;;;;;;;;;;;;;;5048576;28;19915;-51
2022/07/04 15:53:26;;;;;;;;;;;;;;;;;;5047933;28;19916;-51
2022/07/04 15:55:52;;;;;;;;;;;;;;;;;;5065707;28;19934;-52
2022/07/04 15:58:18;;;;;;;;;;;;;;;;;;5058592;28;19917;-50
2022/07/04 16:00:44;;;;;;;;;;;;;;;;;;5053403;28;19917;-51
2022/07/04 16:03:13;;;;;;;;;;;;;;;;;;5054266;28;19913;-49
2022/07/04 16:05:39;;;;;;;;;;;;;;;;;;5051518;28;20024;-52
2022/07/04 16:08:04;;;;;;;;;;;;;;;;;;5065410;28;20446;-53
2022/07/04 16:10:30;;;;;;;;;;;;;;;;;;5068144;28;19908;-53
2022/07/04 16:12:56;;;;;;;;;;;;;;;;;;5067916;28;19912;-52
2022/07/04 16:15:22;;;;;;;;;;;;;;;;;;5048267;28;20249;-49
2022/07/04 16:17:48;;;;;;;;;;;;;;;;;;5067915;28;19916;-51
2022/07/04 16:20:14;;;;;;;;;;;;;;;;;;5067091;28;19923;-52
2022/07/04 16:22:40;;;;;;;;;;;;;;;;;;5068026;28;19909;-51
2022/07/04 16:25:06;;;;;;;;;;;;;;;;;;5060053;28;20404;-50
2022/07/04 16:27:33;;;;;;;;;;;;;;;;;;5067367;28;20018;-52
2022/07/04 16:29:58;;;;;;;;;;;;;;;;;;5066294;28;19948;-48
2022/07/04 16:32:25;;;;;;;;;;;;;;;;;;5053030;28;19916;-49
2022/07/04 16:34:52;;;;;;;;;;;;;;;;;;5047299;28;19943;-49
2022/07/04 16:37:18;;;;;;;;;;;;;;;;;;5062966;28;20045;-50
2022/07/04 16:39:44;;;;;;;;;;;;;;;;;;5086406;28;20412;-52
2022/07/04 16:42:10;;;;;;;;;;;;;;;;;;5058618;28;19917;-51
2022/07/04 16:44:35;;;;;;;;;;;;;;;;;;5048339;28;19932;-51
2022/07/04 16:47:01;;;;;;;;;;;;;;;;;;5051174;28;19913;-48
2022/07/04 16:49:27;;;;;;;;;;;;;;;;;;5061152;28;19920;-51
2022/07/04 16:51:53;;;;;;;;;;;;;;;;;;5048026;28;19909;-49
2022/07/04 16:54:20;;;;;;;;;;;;;;;;;;5062003;28;20018;-48
2022/07/04 16:56:46;;;;;;;;;;;;;;;;;;5087620;28;19916;-49
2022/07/04 16:59:12;;;;;;;;;;;;;;;;;;5085560;28;19920;-49
2022/07/04 17:01:38;;;;;;;;;;;;;;;;;;5064762;28;19940;-49